Time;durP1;ratioP1;P1;durP2;ratioP2;P2;SDS_P1;SDS_P2;PMS_P1;PMS_P2;Temp;Humidity;BMP_temperature;BMP_pressure;BME280_temperature;BME280_humidity;BME280_pressure;Samples;Min_cycle;Max_cycle;Signal;HPM_P1;HPM_P2
2023/05/24 00:01:34;;;;;;;2.60;1.23;;;11.80;99.90;;;11.83;93.88;101704.13;5143094;28;20045;-68
2023/05/24 00:04:07;;;;;;;4.70;2.10;;;11.80;99.90;;;11.78;94.16;101706.47;5142733;28;20043;-68
2023/05/24 00:06:40;;;;;;;5.93;1.63;;;11.70;99.90;;;11.76;94.47;101699.41;5143074;28;20054;-68
2023/05/24 00:09:12;;;;;;;2.85;1.33;;;11.70;99.90;;;11.72;94.52;101708.81;5142528;28;20042;-68
2023/05/24 00:11:44;;;;;;;3.78;1.35;;;11.60;99.90;;;11.69;95.22;101704.38;5143484;28;20042;-68
2023/05/24 00:14:17;;;;;;;4.65;2.00;;;11.60;99.90;;;11.67;95.41;101705.09;5142721;28;20050;-68
2023/05/24 00:16:49;;;;;;;4.13;1.40;;;11.60;99.90;;;11.63;95.71;101708.41;5142738;28;20046;-68
2023/05/24 00:19:23;;;;;;;7.95;1.73;;;11.60;99.90;;;11.59;95.93;101711.69;5141866;28;20035;-68
2023/05/24 00:21:55;;;;;;;4.60;1.42;;;11.50;99.90;;;11.55;96.58;101720.25;5142290;28;20043;-70
2023/05/24 00:24:27;;;;;;;3.80;1.55;;;11.50;99.90;;;11.51;96.67;101719.19;5125446;28;20095;-67
2023/05/24 00:26:59;;;;;;;5.32;1.42;;;11.50;99.90;;;11.46;96.71;101715.47;5142409;28;20050;-68
2023/05/24 00:29:33;;;;;;;3.50;1.50;;;11.40;99.90;;;11.42;97.32;101724.00;5142456;28;20038;-68
2023/05/24 00:32:06;;;;;;;7.07;2.30;;;11.40;99.90;;;11.38;97.59;101716.84;5142742;28;20054;-68
2023/05/24 00:34:40;;;;;;;5.53;1.55;;;11.30;99.90;;;11.35;97.79;101727.16;5142556;28;20339;-68
2023/05/24 00:37:12;;;;;;;5.90;1.48;;;11.30;99.90;;;11.33;98.04;101734.91;5124735;28;20086;-66
2023/05/24 00:39:44;;;;;;;3.95;1.15;;;11.30;99.90;;;11.30;97.64;101726.06;5142089;28;20054;-66
2023/05/24 00:42:16;;;;;;;4.50;1.50;;;11.30;99.90;;;11.28;98.13;101723.38;5125166;28;20062;-66
2023/05/24 00:44:49;;;;;;;3.65;1.60;;;11.20;99.90;;;11.25;98.35;101724.94;5142328;28;20047;-66
2023/05/24 00:47:21;;;;;;;4.18;2.05;;;11.20;99.90;;;11.21;98.11;101723.00;5142424;28;20035;-66
2023/05/24 00:49:54;;;;;;;2.80;1.40;;;11.20;99.90;;;11.19;98.28;101727.25;5142058;28;20125;-66
2023/05/24 00:52:27;;;;;;;2.95;1.45;;;11.10;99.90;;;11.16;98.45;101724.50;5142555;28;20047;-66
2023/05/24 00:55:00;;;;;;;5.32;1.35;;;11.10;99.90;;;11.12;98.90;101724.34;5141892;28;20043;-67
2023/05/24 00:57:34;;;;;;;2.90;1.30;;;11.00;99.90;;;11.07;99.68;101725.84;5125125;28;20129;-66
2023/05/24 01:00:10;;;;;;;3.60;1.42;;;11.00;99.90;;;11.02;99.89;101724.75;5141321;28;20519;-67
2023/05/24 01:02:42;;;;;;;4.88;1.50;;;11.00;99.90;;;10.98;100.00;101727.13;5142201;28;20125;-67
2023/05/24 01:05:16;;;;;;;2.78;1.30;;;10.90;99.90;;;10.93;100.00;101718.19;5124696;28;20039;-67
2023/05/24 01:08:04;;;;;;;2.55;1.25;;;10.90;99.90;;;10.85;100.00;101713.50;5142486;28;20050;-67
2023/05/24 01:10:45;;;;;;;4.85;1.30;;;10.80;99.90;;;10.80;100.00;101716.69;5117629;28;20047;-66
2023/05/24 01:13:29;;;;;;;3.70;1.95;;;10.80;99.90;;;10.75;100.00;101726.00;5124723;28;20047;-66
2023/05/24 01:16:11;;;;;;;1.88;1.13;;;10.70;99.90;;;10.70;100.00;101717.09;5142149;28;20110;-66
2023/05/24 01:18:50;;;;;;;3.70;1.33;;;10.70;99.90;;;10.66;100.00;101726.47;5141948;28;20102;-66
2023/05/24 01:21:47;;;;;;;2.63;1.50;;;10.60;99.90;;;10.63;100.00;101725.41;5142066;28;20031;-67
2023/05/24 01:24:32;;;;;;;6.97;1.75;;;10.60;99.90;;;10.59;100.00;101721.78;5141974;28;20041;-67
2023/05/24 01:27:13;;;;;;;5.43;1.50;;;10.60;99.90;;;10.55;100.00;101718.09;5142229;28;20118;-67
2023/05/24 01:29:52;;;;;;;3.20;1.25;;;10.50;99.90;;;10.52;100.00;101717.06;5141883;28;20416;-67
2023/05/24 01:32:24;;;;;;;3.25;1.33;;;10.50;99.90;;;10.47;100.00;101721.16;5145078;28;20043;-67
2023/05/24 01:34:56;;;;;;;3.08;1.20;;;10.40;99.90;;;10.43;100.00;101712.31;5145519;28;20385;-67
2023/05/24 01:37:29;;;;;;;2.60;1.50;;;10.40;99.90;;;10.38;100.00;101715.50;5145416;28;20050;-67
2023/05/24 01:40:01;;;;;;;4.97;1.33;;;10.40;99.90;;;10.32;100.00;101710.88;5128227;28;20503;-67
2023/05/24 01:42:42;;;;;;;5.40;1.83;;;10.30;99.90;;;10.26;100.00;101706.25;5145762;28;20042;-67
2023/05/24 01:45:21;;;;;;;2.88;1.40;;;10.20;99.90;;;10.19;100.00;101701.50;5127923;28;20050;-66
2023/05/24 01:48:06;;;;;;;4.10;1.27;;;10.20;99.90;;;10.11;100.00;101701.94;5127831;28;20049;-67
2023/05/24 01:50:47;;;;;;;4.30;1.45;;;10.10;99.90;;;10.05;100.00;101707.72;5121184;28;20089;-66
2023/05/24 01:53:20;;;;;;;2.75;1.23;;;10.10;99.90;;;9.99;100.00;101713.50;5127754;28;20051;-67
2023/05/24 01:55:56;;;;;;;1.92;1.48;;;10.00;99.90;;;9.94;100.00;101714.97;5145245;28;20488;-67
2023/05/24 01:58:31;;;;;;;4.32;1.30;;;10.00;99.90;;;9.91;100.00;101707.03;5144583;28;20053;-67
2023/05/24 02:01:03;;;;;;;3.45;1.50;;;9.90;99.90;;;9.86;100.00;101705.88;5127775;28;20051;-67
2023/05/24 02:03:37;;;;;;;4.97;1.20;;;9.80;99.90;;;9.81;100.00;101702.13;5128142;28;20082;-67
2023/05/24 02:06:09;;;;;;;4.20;1.85;;;9.80;99.90;;;9.76;100.00;101698.38;5144945;28;20563;-67
2023/05/24 02:08:45;;;;;;;2.50;1.30;;;9.80;99.90;;;9.76;100.00;101703.59;5145532;28;20488;-67
2023/05/24 02:11:17;;;;;;;1.88;1.13;;;9.70;99.90;;;9.70;100.00;101692.84;5145810;28;20047;-67
2023/05/24 02:13:55;;;;;;;3.33;1.35;;;9.70;99.90;;;9.67;100.00;101697.91;5128546;28;20077;-67
2023/05/24 02:16:29;;;;;;;3.65;1.50;;;9.70;99.90;;;9.64;100.00;101692.53;5127851;28;20031;-67
2023/05/24 02:19:01;;;;;;;1.85;1.10;;;9.70;99.90;;;9.61;100.00;101689.78;5127312;28;20137;-67
2023/05/24 02:21:33;;;;;;;3.53;1.40;;;9.60;99.90;;;9.58;100.00;101692.22;5120119;28;20070;-67
2023/05/24 02:24:06;;;;;;;2.78;1.52;;;9.60;99.90;;;9.55;100.00;101692.94;5127173;28;20054;-67
2023/05/24 02:26:39;;;;;;;4.07;1.50;;;9.60;99.90;;;9.52;100.00;101698.91;5145069;28;20118;-67
2023/05/24 02:29:12;;;;;;;4.28;1.42;;;9.50;99.90;;;9.48;100.00;101690.84;5144187;28;20122;-67
2023/05/24 02:31:45;;;;;;;3.55;1.58;;;9.50;99.90;;;9.46;100.00;101701.19;5144325;28;20039;-67
2023/05/24 02:34:17;;;;;;;4.15;1.40;;;9.50;99.90;;;9.43;100.00;101692.28;5126837;28;20393;-67
2023/05/24 02:36:49;;;;;;;3.08;1.48;;;9.50;99.90;;;9.41;100.00;101692.22;5144499;28;20055;-67
2023/05/24 02:39:21;;;;;;;4.40;1.42;;;9.40;99.90;;;9.38;100.00;101704.16;5126552;28;20165;-67
2023/05/24 02:41:53;;;;;;;3.33;1.50;;;9.40;99.90;;;9.33;100.00;101706.53;5144616;28;20039;-67
2023/05/24 02:44:27;;;;;;;5.78;1.65;;;9.40;99.90;;;9.30;100.00;101711.56;5143714;28;20035;-66
2023/05/24 02:46:59;;;;;;;5.10;1.60;;;9.30;99.90;;;9.26;100.00;101701.81;5144873;28;20438;-67
2023/05/24 02:49:31;;;;;;;3.55;1.60;;;9.30;99.90;;;9.22;100.00;101707.66;5143908;28;20050;-67
2023/05/24 02:52:04;;;;;;;3.10;1.20;;;9.30;99.90;;;9.19;100.00;101704.84;5144267;28;20114;-67
2023/05/24 02:54:36;;;;;;;3.08;1.50;;;9.20;99.90;;;9.16;100.00;101702.09;5144048;28;20047;-67
2023/05/24 02:57:10;;;;;;;2.63;1.60;;;9.20;99.90;;;9.13;100.00;101691.56;5126823;28;20439;-67
2023/05/24 02:59:45;;;;;;;3.47;1.38;;;9.20;99.90;;;9.10;100.00;101693.97;5143635;28;20361;-67
2023/05/24 03:02:18;;;;;;;3.50;1.27;;;9.10;99.90;;;9.06;100.00;101689.41;5127034;28;20110;-67
2023/05/24 03:04:50;;;;;;;3.22;1.20;;;9.10;99.90;;;9.04;100.00;101701.44;5144188;28;20246;-67
2023/05/24 03:07:22;;;;;;;3.53;1.30;;;9.10;99.90;;;8.98;100.00;101692.47;5126697;28;20725;-67
2023/05/24 03:09:54;;;;;;;5.13;1.73;;;9.00;99.90;;;8.95;100.00;101691.44;5143826;28;20133;-67
2023/05/24 03:12:27;;;;;;;4.35;1.60;;;9.00;99.90;;;8.92;100.00;101691.22;5126828;28;20633;-67
2023/05/24 03:15:02;;;;;;;2.85;1.50;;;9.00;99.90;;;8.90;100.00;101679.88;5126280;28;20050;-66
2023/05/24 03:17:36;;;;;;;2.85;1.45;;;8.90;99.90;;;8.86;100.00;101683.97;5126525;28;20130;-68
2023/05/24 03:20:10;;;;;;;4.47;1.50;;;8.90;99.90;;;8.84;100.00;101676.91;5143395;28;20053;-66
2023/05/24 03:22:42;;;;;;;2.83;1.48;;;8.90;99.90;;;8.81;100.00;101688.06;5142472;28;20042;-67
2023/05/24 03:25:14;;;;;;;3.97;1.42;;;8.90;99.90;;;8.77;100.00;101683.47;5125908;28;20516;-67
2023/05/24 03:27:46;;;;;;;3.20;1.60;;;8.80;99.90;;;8.74;100.00;101680.72;5143340;28;20035;-67
2023/05/24 03:30:20;;;;;;;2.28;1.13;;;8.80;99.90;;;8.72;100.00;101686.63;5125951;28;20134;-67
2023/05/24 03:32:58;;;;;;;2.90;1.50;;;8.80;99.90;;;8.70;100.00;101683.94;5125928;28;20039;-68
2023/05/24 03:35:30;;;;;;;3.65;1.23;;;8.80;99.90;;;8.69;100.00;101692.56;5125957;28;20049;-66
2023/05/24 03:38:02;;;;;;;4.05;1.42;;;8.70;99.90;;;8.69;100.00;101700.38;5125968;28;20051;-66
2023/05/24 03:40:37;;;;;;;3.47;1.48;;;8.70;99.90;;;8.65;100.00;101701.88;5125331;28;20054;-66
2023/05/24 03:43:18;;;;;;;4.38;1.67;;;8.70;99.90;;;8.64;100.00;101699.19;5126092;28;20196;-66
2023/05/24 03:46:00;;;;;;;3.53;1.70;;;8.70;99.90;;;8.63;100.00;101700.00;5126020;28;20075;-66
2023/05/24 03:48:33;;;;;;;4.40;1.52;;;8.70;99.90;;;8.61;100.00;101693.84;5125682;28;20522;-66
2023/05/24 03:51:05;;;;;;;3.75;1.73;;;8.70;99.90;;;8.61;100.00;101692.13;5143023;28;20550;-66
2023/05/24 03:53:39;;;;;;;3.58;1.67;;;8.70;99.90;;;8.60;100.00;101698.13;5118583;28;20053;-66
2023/05/24 03:56:11;;;;;;;3.20;1.50;;;8.60;99.90;;;8.60;100.00;101699.81;5124859;28;20047;-66
2023/05/24 03:58:43;;;;;;;6.03;1.67;;;8.60;99.90;;;8.59;100.00;101691.13;5142961;28;20085;-66
2023/05/24 04:01:18;;;;;;;2.50;1.38;;;8.70;99.90;;;8.63;100.00;101692.22;5125344;28;20392;-66
2023/05/24 04:03:54;;;;;;;4.50;1.52;;;8.60;99.90;;;8.67;100.00;101691.56;5143199;28;20074;-66
2023/05/24 04:06:28;;;;;;;3.28;1.55;;;8.70;99.90;;;8.68;100.00;101696.88;5125555;28;20049;-66
2023/05/24 04:09:01;;;;;;;4.40;1.33;;;8.70;99.90;;;8.68;100.00;101693.38;5125512;28;20142;-66
2023/05/24 04:11:35;;;;;;;2.67;1.50;;;8.70;99.90;;;8.66;100.00;101703.66;5125756;28;20050;-66
2023/05/24 04:14:07;;;;;;;2.20;1.50;;;8.70;99.90;;;8.67;100.00;101704.56;5125607;28;20594;-66
2023/05/24 04:16:43;;;;;;;3.45;1.30;;;8.70;99.90;;;8.70;100.00;101717.75;5134238;28;20109;-66
2023/05/24 04:19:15;;;;;;;3.10;1.33;;;8.70;99.90;;;8.76;100.00;101715.50;5124916;28;20053;-66
2023/05/24 04:21:48;;;;;;;3.75;1.70;;;8.80;99.90;;;8.81;100.00;101719.25;5125433;28;20058;-66
2023/05/24 04:24:20;;;;;;;4.65;1.90;;;8.80;99.90;;;8.89;100.00;101735.28;5179336;23;20547;-80
2023/05/24 04:26:52;;;;;;;4.72;1.58;;;8.90;99.90;;;8.98;100.00;101731.47;5179962;28;20053;-80
2023/05/24 04:29:25;;;;;;;4.53;1.65;;;9.00;99.90;;;9.02;100.00;101729.06;5156316;28;20054;-79
2023/05/24 04:32:00;;;;;;;6.55;2.00;;;9.10;99.90;;;9.05;100.00;101726.63;5156847;28;20114;-80
2023/05/24 04:34:32;;;;;;;5.47;1.63;;;9.10;99.90;;;9.06;100.00;101731.91;5148603;28;20050;-80
2023/05/24 04:37:05;;;;;;;6.25;1.75;;;9.10;99.90;;;9.09;100.00;101731.19;5131891;28;20512;-80
2023/05/24 04:39:37;;;;;;;5.22;2.00;;;9.20;99.90;;;9.09;100.00;101734.69;5131136;28;20043;-80
2023/05/24 04:42:09;;;;;;;5.85;1.95;;;9.20;99.90;;;9.12;100.00;101733.94;5149180;28;20042;-79
2023/05/24 04:44:41;;;;;;;3.80;1.85;;;9.10;99.90;;;9.13;100.00;101741.88;5129827;28;20066;-80
2023/05/24 04:47:15;;;;;;;5.35;2.10;;;9.20;99.90;;;9.21;100.00;101737.97;5123715;28;20162;-80
2023/05/24 04:49:47;;;;;;;5.85;2.58;;;9.20;99.90;;;9.38;100.00;101743.19;5142372;28;20146;-80
2023/05/24 04:52:19;;;;;;;6.75;2.53;;;9.40;99.90;;;9.62;100.00;101743.63;5144306;28;20484;-80
2023/05/24 04:54:51;;;;;;;10.65;2.60;;;9.50;99.90;;;9.91;100.00;101746.09;5134131;28;20058;-80
2023/05/24 04:57:23;;;;;;;7.30;3.17;;;9.80;99.90;;;10.16;100.00;101749.94;5148424;28;20047;-80
2023/05/24 04:59:55;;;;;;;6.68;2.20;;;10.00;99.90;;;10.36;100.00;101748.38;5139571;28;20042;-79
2023/05/24 05:02:29;;;;;;;5.40;2.50;;;10.20;99.90;;;10.65;100.00;101760.28;5132367;28;20063;-80
2023/05/24 05:05:02;;;;;;;8.98;2.80;;;10.50;99.90;;;10.92;100.00;101769.47;5141710;28;20050;-80
2023/05/24 05:07:34;;;;;;;7.90;2.58;;;10.70;99.90;;;11.18;100.00;101767.22;5125868;28;20067;-78
2023/05/24 05:10:07;;;;;;;6.45;2.33;;;11.00;99.90;;;11.38;100.00;101769.06;5125569;28;20047;-79
2023/05/24 05:12:39;;;;;;;5.50;2.13;;;11.20;99.90;;;11.53;100.00;101774.97;5141217;28;20043;-80
2023/05/24 05:15:12;;;;;;;5.88;2.15;;;11.30;99.90;;;11.66;100.00;101774.72;5125974;28;20050;-79
2023/05/24 05:17:45;;;;;;;6.93;2.65;;;11.50;99.90;;;11.92;100.00;101769.81;5130955;28;20085;-80
2023/05/24 05:20:18;;;;;;;7.43;2.75;;;11.70;99.90;;;12.16;100.00;101776.16;5135681;28;20058;-80
2023/05/24 05:22:50;;;;;;;8.43;2.38;;;11.90;99.90;;;12.30;100.00;101778.47;5124585;28;20050;-79
2023/05/24 05:25:22;;;;;;;9.05;2.65;;;12.00;99.90;;;12.40;99.75;101776.31;5138012;28;20043;-80
2023/05/24 05:27:54;;;;;;;7.93;2.28;;;12.10;99.90;;;12.44;99.61;101766.88;5130704;28;20117;-80
2023/05/24 05:30:26;;;;;;;9.48;2.47;;;12.20;99.90;;;12.67;100.00;101775.69;5122545;28;20058;-80
2023/05/24 05:33:00;;;;;;;9.82;2.85;;;12.40;99.90;;;12.88;98.36;101780.91;5138040;28;20057;-80
2023/05/24 05:35:32;;;;;;;8.57;2.55;;;12.60;99.90;;;13.04;98.07;101778.13;5144967;28;20039;-80
2023/05/24 05:38:04;;;;;;;9.32;2.67;;;12.70;99.90;;;13.08;96.17;101785.25;5121593;28;20471;-80
2023/05/24 05:40:36;;;;;;;7.53;2.53;;;12.80;99.90;;;13.15;95.56;101774.19;5141666;28;20070;-80
2023/05/24 05:43:09;;;;;;;7.85;2.10;;;12.90;99.90;;;13.21;95.37;101777.06;5153073;28;20043;-80
2023/05/24 05:45:41;;;;;;;10.52;2.65;;;12.90;99.90;;;13.22;94.72;101778.84;5132770;28;20035;-79
2023/05/24 05:48:14;;;;;;;10.32;2.67;;;12.90;99.90;;;13.30;95.73;101779.16;5149667;28;20108;-80
2023/05/24 05:50:46;;;;;;;11.02;2.45;;;13.00;99.90;;;13.47;94.87;101765.00;5138137;28;20038;-80
2023/05/24 05:53:18;;;;;;;7.65;2.17;;;13.10;99.90;;;13.78;94.69;101780.16;5145261;28;20078;-79
2023/05/24 05:55:50;;;;;;;10.55;2.30;;;13.40;99.90;;;13.95;92.34;101772.00;5134565;28;20055;-80
2023/05/24 05:58:22;;;;;;;12.23;2.92;;;13.60;99.90;;;14.11;91.43;101772.63;5135282;28;20062;-80
2023/05/24 06:00:54;;;;;;;8.00;2.75;;;13.70;99.90;;;14.19;91.74;101775.53;5134721;28;20058;-80
2023/05/24 06:03:28;;;;;;;6.18;2.72;;;13.80;99.90;;;14.35;91.50;101771.72;5127220;28;20059;-83
2023/05/24 06:06:00;;;;;;;6.95;2.38;;;14.00;99.90;;;14.44;90.74;101781.63;5143901;28;20057;-84
2023/05/24 06:08:33;;;;;;;14.25;2.70;;;14.00;99.90;;;14.62;90.19;101787.56;5132129;28;20051;-85
2023/05/24 06:11:06;;;;;;;8.57;2.40;;;14.20;99.90;;;14.70;89.80;101783.44;5147995;28;20047;-84
2023/05/24 06:13:38;;;;;;;8.40;2.50;;;14.30;99.90;;;14.75;89.75;101795.00;5141238;28;20043;-83
2023/05/24 06:16:10;;;;;;;8.90;2.47;;;14.40;99.90;;;14.81;89.48;101776.81;5135798;28;20039;-84
2023/05/24 06:18:43;;;;;;;11.00;2.60;;;14.40;99.90;;;15.01;89.26;101779.22;5145494;28;20043;-83
2023/05/24 06:21:15;;;;;;;10.15;2.70;;;14.50;99.90;;;15.10;89.01;101761.13;5135755;28;20468;-84
2023/05/24 06:23:48;;;;;;;11.30;2.80;;;14.70;99.90;;;15.37;89.63;101761.06;5140403;28;20050;-84
2023/05/24 06:26:21;;;;;;;11.23;3.03;;;14.90;99.90;;;15.58;87.91;101760.81;5130839;28;20076;-84
2023/05/24 06:28:53;;;;;;;10.80;2.47;;;15.10;99.90;;;15.78;85.72;101740.41;5135512;28;20043;-84
2023/05/24 06:31:25;;;;;;;9.68;2.97;;;15.30;99.70;;;15.92;85.20;101736.47;5135762;28;20054;-85
2023/05/24 06:33:58;;;;;;;10.00;2.75;;;15.50;99.40;;;15.94;84.35;101724.22;5152576;28;20043;-84
2023/05/24 06:36:32;;;;;;;13.10;2.58;;;15.50;99.00;;;15.99;84.06;101739.28;5130960;28;20519;-84
2023/05/24 06:39:05;;;;;;;8.18;2.10;;;15.60;98.60;;;16.10;83.92;101741.31;5156294;28;20198;-84
2023/05/24 06:41:37;;;;;;;7.18;2.40;;;15.70;98.50;;;16.23;83.25;101739.03;5137803;28;20046;-84
2023/05/24 06:44:10;;;;;;;6.13;2.03;;;15.80;98.10;;;16.28;82.67;101745.31;5146834;28;20046;-84
2023/05/24 06:46:42;;;;;;;9.05;2.22;;;15.80;97.70;;;16.37;82.47;101752.59;5142413;28;20534;-84
2023/05/24 06:49:15;;;;;;;8.63;2.33;;;15.90;97.50;;;16.59;82.47;101750.50;5159846;28;20053;-83
2023/05/24 06:51:47;;;;;;;10.80;2.70;;;16.10;97.50;;;16.51;81.40;101759.09;5137753;28;20424;-84
2023/05/24 06:54:20;;;;;;;7.45;2.08;;;16.10;96.90;;;16.44;81.00;101770.31;5156900;28;20042;-84
2023/05/24 06:56:52;;;;;;;9.05;2.47;;;16.00;96.40;;;16.43;81.40;101768.53;5151223;28;20066;-85
2023/05/24 06:59:24;;;;;;;11.10;2.95;;;16.00;96.50;;;16.52;81.94;101758.25;5155030;28;20057;-84
2023/05/24 07:01:57;;;;;;;6.60;1.92;;;16.10;96.80;;;16.46;81.20;101768.59;5132279;28;20082;-84
2023/05/24 07:04:31;;;;;;;6.78;2.47;;;16.10;96.40;;;16.48;80.84;101766.91;5167668;28;20456;-84
2023/05/24 07:07:03;;;;;;;9.20;2.20;;;16.10;96.10;;;16.56;80.88;101767.09;5138046;28;20047;-84
2023/05/24 07:09:35;;;;;;;10.20;2.42;;;16.10;96.10;;;16.72;80.84;101771.06;5143007;28;20058;-83
2023/05/24 07:12:08;;;;;;;8.02;2.20;;;16.20;96.20;;;17.05;83.27;101777.16;5142687;28;20054;-78
2023/05/24 07:14:40;;;;;;;9.45;2.42;;;16.50;97.30;;;17.47;80.86;101776.34;5147603;28;20066;-82
2023/05/24 07:17:12;;;;;;;9.25;2.45;;;16.90;96.50;;;17.64;78.60;101780.25;5144886;28;20099;-83
2023/05/24 07:19:45;;;;;;;8.50;2.00;;;17.10;95.20;;;17.57;76.51;101788.88;5152420;28;20039;-84
2023/05/24 07:22:17;;;;;;;6.72;2.20;;;17.10;93.70;;;17.28;75.85;101779.44;5120374;28;20058;-83
2023/05/24 07:24:49;;;;;;;8.55;1.90;;;17.00;92.90;;;16.92;76.23;101795.25;5124137;28;20472;-83
2023/05/24 07:27:22;;;;;;;7.47;2.38;;;16.70;92.80;;;16.45;76.03;101787.88;5140362;28;20046;-83
2023/05/24 07:29:54;;;;;;;8.38;1.75;;;16.30;92.20;;;16.14;76.70;101791.41;5117169;28;20424;-83
2023/05/24 07:32:26;;;;;;;6.78;2.15;;;16.00;92.50;;;15.97;77.57;101787.41;5123801;28;20058;-82
2023/05/24 07:35:00;;;;;;;5.88;1.63;;;15.80;93.00;;;15.86;77.92;101789.75;5124642;28;20382;-83
2023/05/24 07:37:32;;;;;;;6.57;2.00;;;15.60;93.30;;;15.87;78.44;101786.28;5117128;28;20502;-84
2023/05/24 07:40:05;;;;;;;6.53;1.85;;;15.60;93.60;;;16.02;79.02;101793.69;5124366;28;20064;-84
2023/05/24 07:42:37;;;;;;;5.80;1.80;;;15.60;94.10;;;16.26;78.89;101799.66;5142486;28;20386;-84
2023/05/24 07:45:10;;;;;;;7.45;2.25;;;15.70;94.30;;;16.25;78.71;101789.97;5133868;28;20410;-84
2023/05/24 07:47:42;;;;;;;7.18;1.88;;;15.80;94.00;;;16.13;78.77;101794.00;5142881;28;20043;-85
2023/05/24 07:50:16;;;;;;;7.28;2.45;;;15.70;94.30;;;15.96;79.34;101796.16;5133607;28;20055;-83
2023/05/24 07:52:48;;;;;;;5.93;2.10;;;15.60;94.10;;;15.72;79.88;101796.34;5129621;28;20568;-83
2023/05/24 07:55:21;;;;;;;7.35;2.08;;;15.50;94.30;;;16.00;81.04;101798.03;5136809;28;20076;-83
2023/05/24 07:57:53;;;;;;;8.98;2.25;;;15.60;95.00;;;16.56;79.89;101790.78;5125726;28;20051;-86
2023/05/24 08:00:25;;;;;;;7.65;2.03;;;15.90;95.10;;;17.22;78.72;101789.84;5123622;28;20061;-83
2023/05/24 08:02:57;;;;;;;4.97;1.83;;;16.40;94.80;;;17.31;77.16;101790.03;5124607;28;20423;-84
2023/05/24 08:05:31;;;;;;;9.98;2.30;;;16.60;94.00;;;17.34;76.15;101782.19;5135420;28;20054;-85
2023/05/24 08:08:03;;;;;;;8.35;3.08;;;16.60;93.20;;;17.71;75.72;101775.09;5162386;28;20528;-84
2023/05/24 08:10:35;;;;;;;6.80;2.13;;;16.80;93.10;;;18.03;75.00;101776.69;5165472;28;20046;-84
2023/05/24 08:13:07;;;;;;;7.55;2.17;;;17.10;92.90;;;18.67;73.42;101780.53;5152443;28;20043;-83
2023/05/24 08:15:39;;;;;;;7.55;2.13;;;17.40;92.50;;;19.36;70.38;101783.38;5132193;28;20051;-84
2023/05/24 08:18:11;;;;;;;10.30;2.25;;;17.90;90.90;;;19.62;69.29;101783.78;5125026;28;20149;-84
2023/05/24 08:20:45;;;;;;;8.55;2.40;;;18.10;90.20;;;20.10;67.89;101780.84;5123506;28;20137;-83
2023/05/24 08:23:17;;;;;;;7.45;1.83;;;18.40;89.20;;;20.53;66.16;101781.31;5132535;28;20050;-84
2023/05/24 08:25:49;;;;;;;9.48;2.30;;;18.60;86.90;;;20.52;65.41;101771.59;5115855;28;20105;-83
2023/05/24 08:28:21;;;;;;;7.32;2.35;;;18.70;85.60;;;20.05;66.58;101777.25;5130972;28;20046;-84
2023/05/24 08:30:53;;;;;;;6.32;2.03;;;18.60;85.30;;;19.34;68.09;101786.00;5136270;28;20051;-85
2023/05/24 08:33:25;;;;;;;10.13;2.30;;;18.30;85.40;;;18.90;69.57;101785.31;5138242;28;20047;-84
2023/05/24 08:35:59;;;;;;;7.97;2.13;;;18.00;86.80;;;18.68;69.65;101784.97;5126231;28;20050;-83
2023/05/24 08:38:31;;;;;;;6.63;1.98;;;17.80;86.50;;;18.61;69.58;101790.97;5121033;28;20137;-84
2023/05/24 08:41:07;;;;;;;7.85;2.63;;;17.60;86.60;;;18.40;70.32;101790.59;5118325;28;20047;-84
2023/05/24 08:43:39;;;;;;;10.85;2.63;;;17.50;87.00;;;18.01;71.13;101791.59;5126007;28;20055;-83
2023/05/24 08:46:14;;;;;;;5.32;1.73;;;17.30;87.60;;;17.58;72.14;101795.91;5128579;28;20047;-84
2023/05/24 08:48:47;;;;;;;;;;;17.00;88.00;;;17.18;73.06;101798.50;5123332;28;20051;-84
2023/05/24 08:51:20;;;;;;;6.10;2.10;;;16.70;88.60;;;16.88;73.84;101789.00;5140373;28;19922;-83
2023/05/24 08:53:53;;;;;;;10.30;2.10;;;16.50;89.40;;;16.62;74.67;101797.94;5129851;28;20031;-83
2023/05/24 08:56:26;;;;;;;8.15;2.00;;;16.30;90.10;;;16.40;75.66;101794.75;5145706;28;20042;-83
2023/05/24 08:58:58;;;;;;;8.70;2.20;;;16.10;90.70;;;16.19;76.35;101784.56;5148942;28;20072;-84
2023/05/24 09:01:32;;;;;;;6.38;2.40;;;15.90;91.00;;;16.02;76.56;101786.69;5128120;28;20051;-84
2023/05/24 09:04:05;;;;;;;5.05;2.03;;;15.70;91.00;;;15.86;77.02;101781.88;5151782;28;20501;-83
2023/05/24 09:06:39;;;;;;;10.57;2.33;;;15.60;91.40;;;15.74;77.98;101784.13;5151440;28;20047;-84
2023/05/24 09:09:12;;;;;;;6.95;2.15;;;15.50;91.90;;;15.58;78.54;101771.34;5133600;28;20065;-83
2023/05/24 09:11:47;;;;;;;7.47;1.85;;;15.30;92.20;;;15.44;79.50;101776.19;5158426;28;20595;-84
2023/05/24 09:14:20;;;;;;;6.20;2.53;;;15.20;92.80;;;15.40;80.27;101772.59;5124982;28;20058;-84
2023/05/24 09:16:52;;;;;;;8.70;2.63;;;15.20;93.20;;;15.47;80.31;101766.66;5137393;28;20053;-84
2023/05/24 09:19:26;;;;;;;9.02;3.05;;;15.20;93.40;;;15.74;80.64;101774.50;5136285;28;20051;-83
2023/05/24 09:22:00;;;;;;;8.70;2.72;;;15.30;93.80;;;16.14;80.00;101758.97;5126069;28;20133;-84
2023/05/24 09:24:41;;;;;;;8.07;2.70;;;15.60;93.80;;;16.96;78.49;101765.50;5118679;28;20082;-84
2023/05/24 09:27:15;;;;;;;8.50;2.88;;;16.10;93.70;;;17.15;76.40;101767.72;5156351;28;20106;-83
2023/05/24 09:29:48;;;;;;;7.15;2.58;;;16.40;92.50;;;17.02;75.72;101777.09;5126947;28;20101;-83
2023/05/24 09:32:23;;;;;;;9.52;2.72;;;16.50;91.80;;;16.89;76.30;101764.47;5128759;28;20421;-84
2023/05/24 09:34:58;;;;;;;7.85;2.28;;;16.40;91.80;;;16.71;76.84;101769.28;5141890;28;20042;-85
2023/05/24 09:37:31;;;;;;;7.10;2.35;;;16.40;91.90;;;16.47;76.42;101767.75;5139775;28;20049;-83
2023/05/24 09:40:05;;;;;;;7.70;2.38;;;16.20;91.50;;;16.23;76.42;101775.88;5123319;28;20069;-85
2023/05/24 09:42:37;;;;;;;7.55;2.20;;;16.00;91.40;;;16.07;76.82;101762.28;5147198;28;20083;-85
2023/05/24 09:45:11;;;;;;;9.18;2.88;;;15.90;91.40;;;16.02;77.28;101763.03;5120558;28;20058;-82
2023/05/24 09:47:44;;;;;;;6.00;1.98;;;15.80;91.70;;;16.28;78.15;101770.75;5127720;28;20043;-85
2023/05/24 09:50:17;;;;;;;5.82;1.83;;;15.90;92.30;;;16.79;77.20;101762.44;5136012;28;20073;-83
2023/05/24 09:52:53;;;;;;;8.02;2.28;;;16.20;92.30;;;17.07;74.80;101749.09;5111518;28;20055;-84
2023/05/24 09:55:27;;;;;;;6.40;2.10;;;16.50;91.30;;;17.13;72.77;101745.69;5120704;28;20058;-85
2023/05/24 09:58:04;;;;;;;7.47;1.92;;;16.60;90.00;;;17.05;72.98;101752.53;5143613;28;20054;-84
2023/05/24 10:00:40;;;;;;;6.93;2.17;;;16.60;89.80;;;16.87;72.25;101750.34;5144742;28;20043;-85
2023/05/24 10:03:13;;;;;;;5.18;2.00;;;16.50;88.30;;;16.63;71.97;101739.22;5142879;28;20074;-84
2023/05/24 10:05:47;;;;;;;4.80;1.90;;;16.40;87.40;;;16.47;72.38;101744.06;5125119;28;20570;-84
2023/05/24 10:08:21;;;;;;;7.25;1.73;;;16.20;87.70;;;16.44;73.55;101749.25;5113053;28;20047;-84
2023/05/24 10:10:55;;;;;;;5.80;1.80;;;16.20;89.00;;;16.51;74.11;101740.69;5144042;28;20053;-84
2023/05/24 10:13:28;;;;;;;6.60;2.20;;;16.20;89.70;;;16.65;74.37;101732.22;5117290;28;20055;-84
2023/05/24 10:16:00;;;;;;;5.18;2.17;;;16.30;90.20;;;16.72;74.47;101737.72;5113917;28;20532;-83
2023/05/24 10:18:32;;;;;;;7.82;2.28;;;16.30;90.20;;;16.87;75.26;101716.13;5139233;28;20047;-85
2023/05/24 10:21:08;;;;;;;6.95;2.00;;;16.40;90.70;;;16.91;74.87;101730.25;5119820;28;20070;-85
2023/05/24 10:23:44;;;;;;;5.00;2.45;;;16.50;90.50;;;16.87;74.88;101734.56;5160880;23;20046;-81
2023/05/24 10:26:17;;;;;;;5.75;1.83;;;16.50;90.40;;;16.80;75.22;101743.16;5181433;28;20080;-81
2023/05/24 10:28:55;;;;;;;5.55;2.10;;;16.40;90.40;;;16.69;75.21;101736.69;5190176;28;20052;-82
2023/05/24 10:31:33;;;;;;;8.10;2.65;;;16.40;90.40;;;16.59;75.06;101742.59;5172552;28;20049;-82
2023/05/24 10:34:07;;;;;;;6.30;2.60;;;16.30;90.30;;;16.53;75.66;101738.97;5166785;28;20046;-83
2023/05/24 10:36:39;;;;;;;7.00;2.80;;;16.20;90.50;;;16.49;75.90;101737.09;5150153;28;20105;-81
2023/05/24 10:39:13;;;;;;;8.75;3.20;;;16.20;90.70;;;16.50;76.00;101744.16;5169503;28;20069;-79